createdAt,value
2019-02-07T00:02:02.839Z,40.03
2019-02-07T00:04:34.506Z,39.40
2019-02-07T00:07:04.657Z,35.47
2019-02-07T00:09:34.929Z,35.77
2019-02-07T00:12:05.335Z,40.27
2019-02-07T00:14:39.729Z,36.90
2019-02-07T00:17:08.199Z,36.27
2019-02-07T00:19:38.336Z,40.93
2019-02-07T00:22:10.035Z,35.23
2019-02-07T00:24:42.953Z,40.27
2019-02-07T00:27:12.374Z,40.80
2019-02-07T00:29:42.648Z,37.93
2019-02-07T00:32:12.882Z,40.37
2019-02-07T00:34:43.214Z,37.17
2019-02-07T00:37:13.456Z,39.67
2019-02-07T00:39:44.286Z,39.87
2019-02-07T00:42:14.513Z,36.23
2019-02-07T00:44:51.131Z,32.23
2019-02-07T00:47:16.679Z,36.63
2019-02-07T00:49:47.127Z,37.67
2019-02-07T00:52:17.456Z,31.50
2019-02-07T00:54:48.230Z,36.70
2019-02-07T00:57:18.408Z,39.93
2019-02-07T00:59:48.999Z,33.97
2019-02-07T01:02:19.987Z,36.67
2019-02-07T01:04:50.275Z,42.50
2019-02-07T01:07:20.557Z,35.73
2019-02-07T01:09:51.039Z,38.37
2019-02-07T01:12:21.363Z,35.30
2019-02-07T01:15:01.728Z,36.33
2019-02-07T01:17:24.960Z,40.53
2019-02-07T01:19:55.262Z,32.67
2019-02-07T01:22:25.946Z,36.03
2019-02-07T01:24:56.237Z,38.80
2019-02-07T01:27:26.867Z,36.27
2019-02-07T01:29:57.123Z,34.27
2019-02-07T01:32:27.887Z,39.07
2019-02-07T01:34:59.208Z,39.93
2019-02-07T01:37:31.327Z,41.77
2019-02-07T01:40:01.676Z,35.63
2019-02-07T01:42:32.440Z,36.57
2019-02-07T01:45:12.573Z,38.27
2019-02-07T01:47:34.548Z,30.60
2019-02-07T01:50:06.423Z,37.73
2019-02-07T01:52:37.316Z,37.80
2019-02-07T01:55:08.038Z,36.23
2019-02-07T01:57:38.261Z,33.53
2019-02-07T02:00:11.773Z,34.80
2019-02-07T02:02:43.104Z,37.60
2019-02-07T02:05:15.909Z,35.73
2019-02-07T02:07:46.638Z,31.17
2019-02-07T02:10:22.192Z,37.63
2019-02-07T02:12:52.579Z,36.10
2019-02-07T02:15:25.071Z,36.73
2019-02-07T02:17:56.013Z,37.10
2019-02-07T02:20:27.788Z,36.03
2019-02-07T02:22:59.102Z,34.47
2019-02-07T02:25:29.255Z,36.00
2019-02-07T02:27:59.714Z,35.93
2019-02-07T02:30:32.385Z,36.33
2019-02-07T02:33:03.177Z,37.90
2019-02-07T02:35:33.381Z,36.40
2019-02-07T02:38:03.544Z,41.43
2019-02-07T02:40:33.879Z,38.03
2019-02-07T02:43:04.555Z,36.87
2019-02-07T02:45:37.630Z,39.53
2019-02-07T02:48:06.767Z,42.03
2019-02-07T02:50:38.568Z,36.87
2019-02-07T02:53:10.191Z,38.77
2019-02-07T02:55:43.116Z,43.03
2019-02-07T02:58:13.969Z,35.47
2019-02-07T03:01:03.146Z,40.53
2019-02-07T03:03:41.025Z,41.50
2019-02-07T03:06:37.214Z,37.60
2019-02-07T03:09:34.607Z,37.90
2019-02-07T03:12:39.374Z,40.03
2019-02-07T03:15:28.671Z,38.07
2019-02-07T03:18:16.780Z,39.00
2019-02-07T03:21:05.051Z,41.27
2019-02-07T03:23:53.779Z,42.13
2019-02-07T03:26:42.066Z,39.43
2019-02-07T03:29:20.994Z,39.80
2019-02-07T03:32:00.806Z,44.10
2019-02-07T03:34:42.814Z,41.77
2019-02-07T03:37:19.407Z,44.07
2019-02-07T03:40:07.691Z,38.67
2019-02-07T03:42:57.034Z,42.23
2019-02-07T03:46:02.027Z,37.10
2019-02-07T03:48:48.598Z,40.77
2019-02-07T03:51:30.794Z,37.97
2019-02-07T03:54:32.348Z,38.73
2019-02-07T03:57:33.602Z,33.57
2019-02-07T04:00:17.094Z,35.73
2019-02-07T04:03:00.086Z,40.30
2019-02-07T04:06:01.728Z,41.27
2019-02-07T04:08:59.829Z,44.00
2019-02-07T04:11:49.498Z,38.70
2019-02-07T04:14:31.484Z,41.43
2019-02-07T04:17:19.490Z,42.00
2019-02-07T04:20:08.166Z,39.27
2019-02-07T04:22:57.232Z,41.40
2019-02-07T04:25:55.207Z,40.03
2019-02-07T04:28:47.976Z,42.87
2019-02-07T04:31:34.650Z,39.90
2019-02-07T04:34:30.610Z,44.20
2019-02-07T04:37:22.922Z,43.07
2019-02-07T04:40:12.465Z,44.20
2019-02-07T04:42:57.170Z,46.00
2019-02-07T04:45:55.550Z,47.67
2019-02-07T04:48:44.543Z,36.33
2019-02-07T04:51:26.055Z,46.00
2019-02-07T04:54:15.073Z,43.93
2019-02-07T04:57:12.847Z,45.30
2019-02-07T05:00:09.973Z,45.73
2019-02-07T05:03:02.036Z,45.47
2019-02-07T05:06:00.187Z,43.53
2019-02-07T05:08:46.990Z,39.47
2019-02-07T05:11:38.816Z,45.63
2019-02-07T05:14:31.307Z,45.37
2019-02-07T05:17:08.602Z,43.87
2019-02-07T05:19:57.958Z,44.53
2019-02-07T05:22:49.089Z,42.00
2019-02-07T05:25:38.420Z,43.70
2019-02-07T05:28:44.963Z,38.70
2019-02-07T05:31:33.675Z,41.13
2019-02-07T05:34:21.810Z,47.43
2019-02-07T05:37:22.948Z,46.00
2019-02-07T05:40:11.588Z,47.07
2019-02-07T05:43:01.094Z,47.07
2019-02-07T05:45:51.250Z,47.67
2019-02-07T05:48:39.235Z,51.37
2019-02-07T05:51:19.724Z,49.17
2019-02-07T05:54:07.593Z,50.40
2019-02-07T05:57:02.586Z,51.03
2019-02-07T05:59:50.582Z,53.47
2019-02-07T06:02:39.830Z,49.07
2019-02-07T06:05:30.238Z,50.17
2019-02-07T06:08:18.985Z,48.93
2019-02-07T06:10:57.390Z,45.93
2019-02-07T06:14:16.251Z,48.97
2019-02-07T06:17:12.300Z,49.43
2019-02-07T06:20:02.368Z,48.03
2019-02-07T06:22:52.613Z,51.90
2019-02-07T06:25:44.838Z,52.13
2019-02-07T06:28:32.781Z,53.57
2019-02-07T06:31:09.895Z,50.37
2019-02-07T06:34:07.361Z,58.00
2019-02-07T06:36:50.485Z,52.47
2019-02-07T06:39:30.265Z,55.60
2019-02-07T06:42:08.667Z,53.70
2019-02-07T06:44:53.087Z,51.97
2019-02-07T06:47:41.924Z,53.20
2019-02-07T06:50:25.149Z,57.80
2019-02-07T06:53:13.064Z,55.87
2019-02-07T06:56:11.942Z,57.70
2019-02-07T06:59:05.909Z,55.83
2019-02-07T07:01:53.820Z,53.23
2019-02-07T07:04:42.228Z,56.03
2019-02-07T07:07:34.364Z,52.53
2019-02-07T07:10:23.218Z,56.83
2019-02-07T07:13:18.944Z,52.83
2019-02-07T07:16:20.449Z,53.10
2019-02-07T07:19:13.372Z,56.23
2019-02-07T07:22:01.473Z,60.10
2019-02-07T07:24:49.896Z,47.17
2019-02-07T07:27:47.138Z,48.33
2019-02-07T07:30:35.468Z,55.47
2019-02-07T07:33:24.559Z,52.73
2019-02-07T07:36:13.063Z,60.00
2019-02-07T07:39:05.554Z,45.87
2019-02-07T07:41:54.880Z,46.57
2019-02-07T07:44:44.037Z,54.20
2019-02-07T07:47:36.063Z,44.40
2019-02-07T07:50:20.919Z,52.23
2019-02-07T07:53:15.749Z,48.77
2019-02-07T07:56:03.858Z,51.60
2019-02-07T07:58:53.443Z,52.10
2019-02-07T08:01:46.444Z,49.43
2019-02-07T08:04:48.261Z,44.70
2019-02-07T08:07:38.035Z,38.07
2019-02-07T08:10:28.155Z,42.93
2019-02-07T08:13:32.883Z,45.87
2019-02-07T08:16:21.216Z,45.93
2019-02-07T08:19:17.218Z,42.63
2019-02-07T08:22:13.066Z,36.57
2019-02-07T08:25:10.803Z,47.90
2019-02-07T08:27:59.492Z,39.90
2019-02-07T08:30:47.154Z,42.57
2019-02-07T08:33:45.694Z,45.03
2019-02-07T08:36:41.298Z,43.73
2019-02-07T08:39:32.125Z,46.70
2019-02-07T08:42:30.585Z,47.27
2019-02-07T08:45:18.744Z,43.10
2019-02-07T08:48:08.536Z,45.13
2019-02-07T08:50:57.077Z,45.77
2019-02-07T08:53:48.167Z,45.47
2019-02-07T08:56:28.732Z,41.90
2019-02-07T08:59:22.129Z,44.13
2019-02-07T09:02:09.237Z,44.53
2019-02-07T09:05:07.460Z,46.37
2019-02-07T09:08:11.884Z,50.57
2019-02-07T09:10:59.746Z,48.30
2019-02-07T09:13:48.929Z,42.83
2019-02-07T09:16:38.086Z,44.53
2019-02-07T09:19:29.379Z,43.97
2019-02-07T09:22:23.861Z,39.73
2019-02-07T09:25:15.566Z,41.87
2019-02-07T09:28:07.636Z,42.23
2019-02-07T09:31:14.927Z,44.80
2019-02-07T09:34:16.822Z,48.40
2019-02-07T09:37:18.176Z,44.00
2019-02-07T09:40:07.870Z,38.27
2019-02-07T09:42:55.903Z,44.37
2019-02-07T09:45:44.193Z,39.63
2019-02-07T09:48:32.324Z,45.43
2019-02-07T09:51:12.495Z,50.63
2019-02-07T09:54:14.436Z,39.97
2019-02-07T09:56:58.096Z,46.13
2019-02-07T09:59:46.695Z,40.93
2019-02-07T10:02:34.449Z,42.40
2019-02-07T10:05:23.308Z,38.43
2019-02-07T10:08:11.376Z,38.80
2019-02-07T10:11:03.615Z,44.23
2019-02-07T10:13:51.739Z,40.63
2019-02-07T10:16:38.783Z,41.87
2019-02-07T10:19:25.947Z,43.13
2019-02-07T10:22:20.031Z,41.00
2019-02-07T10:25:09.631Z,40.63
2019-02-07T10:28:14.050Z,55.97
2019-02-07T10:31:03.572Z,37.27
2019-02-07T10:33:53.494Z,56.00
2019-02-07T10:36:35.005Z,39.20
2019-02-07T10:39:25.830Z,38.33
2019-02-07T10:42:19.297Z,44.87
2019-02-07T10:45:17.422Z,43.87
2019-02-07T10:48:05.146Z,42.97
2019-02-07T10:51:03.961Z,42.47
2019-02-07T10:54:05.119Z,39.67
2019-02-07T10:56:53.129Z,39.03
2019-02-07T10:59:47.828Z,37.87
2019-02-07T11:02:55.280Z,38.43
2019-02-07T11:05:50.398Z,48.73
2019-02-07T11:08:39.000Z,40.13
2019-02-07T11:11:21.564Z,43.73
2019-02-07T11:14:09.066Z,44.90
2019-02-07T11:17:16.426Z,41.57
2019-02-07T11:20:11.692Z,44.80
2019-02-07T11:22:51.302Z,42.87
2019-02-07T11:25:49.527Z,44.87
2019-02-07T11:28:41.147Z,43.73
2019-02-07T11:31:32.894Z,45.83
2019-02-07T11:34:20.304Z,51.30
2019-02-07T11:37:08.130Z,46.50
2019-02-07T11:40:09.535Z,49.83
2019-02-07T11:42:55.147Z,50.83
2019-02-07T11:45:40.183Z,45.50
2019-02-07T11:48:28.152Z,30.07
2019-02-07T11:51:12.323Z,38.03
2019-02-07T11:53:54.419Z,38.57
2019-02-07T11:56:37.842Z,34.60
2019-02-07T11:59:25.665Z,33.73
2019-02-07T12:02:13.668Z,29.67
2019-02-07T12:04:56.877Z,31.27
2019-02-07T12:07:35.142Z,27.90
2019-02-07T12:10:30.840Z,33.93
2019-02-07T12:13:22.567Z,27.00
2019-02-07T12:16:19.714Z,26.10
2019-02-07T12:19:23.415Z,30.13
2019-02-07T12:22:11.410Z,24.47
2019-02-07T12:25:10.855Z,22.40
2019-02-07T12:27:58.991Z,22.47
2019-02-07T12:31:00.393Z,19.67
2019-02-07T12:33:56.261Z,19.73
2019-02-07T12:37:02.037Z,20.33
2019-02-07T12:40:00.507Z,16.93
2019-02-07T12:42:39.523Z,17.13
2019-02-07T12:45:31.067Z,10.27
2019-02-07T12:48:19.252Z,9.17
2019-02-07T12:51:11.639Z,14.30
2019-02-07T12:54:04.025Z,9.87
2019-02-07T12:57:10.929Z,21.63
2019-02-07T13:00:15.440Z,32.70
2019-02-07T13:03:10.927Z,39.23
2019-02-07T13:05:58.922Z,40.23
2019-02-07T13:08:42.011Z,36.07
2019-02-07T13:11:37.278Z,38.63
2019-02-07T13:14:29.755Z,40.03
2019-02-07T13:17:20.090Z,42.77
2019-02-07T13:20:13.253Z,41.40
2019-02-07T13:23:15.412Z,43.23
2019-02-07T13:26:03.850Z,35.77
2019-02-07T13:28:42.155Z,33.67
2019-02-07T13:31:40.550Z,29.23
2019-02-07T13:34:39.782Z,27.70
2019-02-07T13:37:34.868Z,30.10
2019-02-07T13:40:29.038Z,25.07
2019-02-07T13:43:21.794Z,25.17
2019-02-07T13:46:40.104Z,13.13
2019-02-07T13:49:28.449Z,15.23
2019-02-07T13:52:18.084Z,10.43
2019-02-07T13:55:05.871Z,10.70
2019-02-07T13:57:49.872Z,12.87
2019-02-07T14:00:37.248Z,18.60
2019-02-07T14:03:39.669Z,30.37
2019-02-07T14:06:27.603Z,19.10
2019-02-07T14:09:21.786Z,19.93
2019-02-07T14:12:11.294Z,32.73
2019-02-07T14:15:02.353Z,31.63
2019-02-07T14:17:55.205Z,30.50
2019-02-07T14:20:43.196Z,35.30
2019-02-07T14:23:32.727Z,32.17
2019-02-07T14:26:34.133Z,35.63
2019-02-07T14:29:17.565Z,37.07
2019-02-07T14:31:56.152Z,38.73
2019-02-07T14:34:44.747Z,42.33
2019-02-07T14:37:36.954Z,34.43
2019-02-07T14:40:26.440Z,39.57
2019-02-07T14:43:06.255Z,28.17
2019-02-07T14:45:53.892Z,33.17
2019-02-07T14:48:25.192Z,31.83
2019-02-07T14:50:55.818Z,34.47
2019-02-07T14:53:26.407Z,32.17
2019-02-07T14:55:58.667Z,37.23
2019-02-07T14:58:28.301Z,37.60
2019-02-07T15:00:58.411Z,37.73
2019-02-07T15:03:29.186Z,42.57
2019-02-07T15:05:59.295Z,38.60
2019-02-07T15:08:29.661Z,42.77
2019-02-07T15:10:59.783Z,43.37
2019-02-07T15:13:31.452Z,43.40
2019-02-07T15:16:01.059Z,44.37
2019-02-07T15:18:31.380Z,45.03
2019-02-07T15:21:05.368Z,48.90
2019-02-07T15:23:34.999Z,45.03
2019-02-07T15:26:05.364Z,44.93
2019-02-07T15:28:35.606Z,41.97
2019-02-07T15:31:05.338Z,42.53
2019-02-07T15:33:36.047Z,41.33
2019-02-07T15:36:05.920Z,38.70
2019-02-07T15:38:35.972Z,38.13
2019-02-07T15:41:05.638Z,37.70
2019-02-07T15:43:35.714Z,37.00
2019-02-07T15:46:07.825Z,33.63
2019-02-07T15:48:37.422Z,33.77
2019-02-07T15:51:08.971Z,30.17
2019-02-07T15:53:39.285Z,30.00
2019-02-07T15:56:10.061Z,24.30
2019-02-07T15:59:04.351Z,26.40
2019-02-07T16:01:40.273Z,28.17
2019-02-07T16:04:30.946Z,22.90
2019-02-07T16:07:02.383Z,24.80
2019-02-07T16:09:35.039Z,25.37
2019-02-07T16:12:05.493Z,28.07
2019-02-07T16:14:36.219Z,29.40
2019-02-07T16:17:09.419Z,26.20
2019-02-07T16:19:39.567Z,27.67
2019-02-07T16:22:09.905Z,27.40
2019-02-07T16:24:40.069Z,27.47
2019-02-07T16:27:10.285Z,27.33
2019-02-07T16:29:40.852Z,24.73
2019-02-07T16:32:10.978Z,20.43
2019-02-07T16:34:42.324Z,21.70
2019-02-07T16:37:13.862Z,20.57
2019-02-07T16:39:44.276Z,22.43
2019-02-07T16:42:14.591Z,18.17
2019-02-07T16:44:44.738Z,15.87
2019-02-07T16:47:15.103Z,24.73
2019-02-07T16:49:44.790Z,20.40
2019-02-07T16:52:15.562Z,19.17
2019-02-07T16:54:46.683Z,15.70
2019-02-07T16:57:17.207Z,16.20
2019-02-07T16:59:48.410Z,14.70
2019-02-07T17:02:19.085Z,15.07
2019-02-07T17:04:49.235Z,15.93
2019-02-07T17:07:19.767Z,15.77
2019-02-07T17:09:50.455Z,14.70
2019-02-07T17:12:21.102Z,15.53
2019-02-07T17:14:50.839Z,23.90
2019-02-07T17:17:20.982Z,16.70
2019-02-07T17:19:51.233Z,15.60
2019-02-07T17:22:21.916Z,16.57
2019-02-07T17:24:52.780Z,22.07
2019-02-07T17:27:25.051Z,15.77
2019-02-07T17:29:55.376Z,24.60
2019-02-07T17:32:25.530Z,28.67
2019-02-07T17:34:55.896Z,30.20
2019-02-07T17:37:26.461Z,32.20
2019-02-07T17:39:55.997Z,31.90
2019-02-07T17:42:26.757Z,34.43
2019-02-07T17:44:57.197Z,36.87
2019-02-07T17:47:27.530Z,36.90
2019-02-07T17:49:58.369Z,36.47
2019-02-07T17:52:29.748Z,36.20
2019-02-07T17:55:00.989Z,37.30
2019-02-07T17:57:31.204Z,36.80
2019-02-07T18:00:00.787Z,38.00
2019-02-07T18:02:30.387Z,39.23
2019-02-07T18:05:01.349Z,36.77
2019-02-07T18:07:32.906Z,36.50
2019-02-07T18:10:03.228Z,35.73
2019-02-07T18:12:33.581Z,28.70
2019-02-07T18:15:04.749Z,28.93
2019-02-07T18:17:35.085Z,29.83
2019-02-07T18:20:06.908Z,27.03
2019-02-07T18:22:37.325Z,25.23
2019-02-07T18:25:07.706Z,27.13
2019-02-07T18:27:37.935Z,23.20
2019-02-07T18:30:15.604Z,26.30
2019-02-07T18:32:46.413Z,22.97
2019-02-07T18:35:19.177Z,21.87
2019-02-07T18:37:50.253Z,18.83
2019-02-07T18:40:22.754Z,21.37
2019-02-07T18:42:53.483Z,17.77
2019-02-07T18:45:24.980Z,19.07
2019-02-07T18:47:54.869Z,16.77
2019-02-07T18:50:25.741Z,19.90
2019-02-07T18:52:56.422Z,17.77
2019-02-07T18:55:26.763Z,18.60
2019-02-07T18:57:58.074Z,18.57
2019-02-07T19:00:29.859Z,17.53
2019-02-07T19:03:00.328Z,18.80
2019-02-07T19:05:30.658Z,16.13
2019-02-07T19:08:00.351Z,16.27
2019-02-07T19:10:30.497Z,15.50
2019-02-07T19:13:01.311Z,16.97
2019-02-07T19:15:35.662Z,26.13
2019-02-07T19:18:06.039Z,12.93
2019-02-07T19:20:36.667Z,13.20
2019-02-07T19:23:06.510Z,15.07
2019-02-07T19:25:37.173Z,14.10
2019-02-07T19:28:08.118Z,15.07
2019-02-07T19:30:38.421Z,14.43
2019-02-07T19:33:09.161Z,15.17
2019-02-07T19:35:39.526Z,17.43
2019-02-07T19:38:09.663Z,16.00
2019-02-07T19:40:40.503Z,16.37
2019-02-07T19:43:10.932Z,17.73
2019-02-07T19:45:41.372Z,16.03
2019-02-07T19:48:11.627Z,15.77
2019-02-07T19:50:41.924Z,17.63
2019-02-07T19:53:12.109Z,14.77
2019-02-07T19:55:42.367Z,15.40
2019-02-07T19:58:12.629Z,17.37
2019-02-07T20:00:42.931Z,17.97
2019-02-07T20:03:13.196Z,19.53
2019-02-07T20:05:43.591Z,24.00
2019-02-07T20:08:16.797Z,23.97
2019-02-07T20:10:47.238Z,25.47
2019-02-07T20:13:17.497Z,23.70
2019-02-07T20:15:48.360Z,18.93
2019-02-07T20:18:18.082Z,17.40
2019-02-07T20:20:49.478Z,18.03
2019-02-07T20:23:20.155Z,17.50
2019-02-07T20:25:52.319Z,15.37
2019-02-07T20:28:22.550Z,18.70
2019-02-07T20:30:54.324Z,18.27
2019-02-07T20:33:24.783Z,15.83
2019-02-07T20:35:56.520Z,14.23
2019-02-07T20:38:27.189Z,15.40
2019-02-07T20:40:59.666Z,14.23
2019-02-07T20:43:30.117Z,12.50
2019-02-07T20:45:59.898Z,15.73
2019-02-07T20:48:29.397Z,12.17
2019-02-07T20:50:58.944Z,11.50
2019-02-07T20:53:30.098Z,12.20
2019-02-07T20:56:00.298Z,13.47
2019-02-07T20:58:30.819Z,12.10
2019-02-07T21:01:01.058Z,11.33
2019-02-07T21:03:31.574Z,13.33
2019-02-07T21:06:01.899Z,9.77
2019-02-07T21:08:32.415Z,11.70
2019-02-07T21:11:02.801Z,11.17
2019-02-07T21:13:33.198Z,13.73
2019-02-07T21:16:03.384Z,12.37
2019-02-07T21:18:33.770Z,11.97
2019-02-07T21:21:04.135Z,10.67
2019-02-07T21:23:34.714Z,11.37
2019-02-07T21:26:05.313Z,13.30
2019-02-07T21:28:35.636Z,12.27
2019-02-07T21:31:05.838Z,12.23
2019-02-07T21:33:35.920Z,13.10
2019-02-07T21:36:06.188Z,15.13
2019-02-07T21:38:36.888Z,12.47
2019-02-07T21:41:06.536Z,14.03
2019-02-07T21:43:36.040Z,15.37
2019-02-07T21:46:06.195Z,13.63
2019-02-07T21:48:36.491Z,15.07
2019-02-07T21:51:06.189Z,15.07
2019-02-07T21:53:36.748Z,14.60
2019-02-07T21:56:07.267Z,13.23
2019-02-07T21:58:37.381Z,14.90
2019-02-07T22:01:06.956Z,16.80
2019-02-07T22:03:37.277Z,14.23
2019-02-07T22:06:07.581Z,13.67
2019-02-07T22:08:39.060Z,18.43
2019-02-07T22:11:09.711Z,18.07
2019-02-07T22:13:39.917Z,12.83
2019-02-07T22:16:10.250Z,14.77
2019-02-07T22:18:40.362Z,14.97
2019-02-07T22:21:10.808Z,14.97
2019-02-07T22:23:41.022Z,16.57
2019-02-07T22:26:11.255Z,15.70
2019-02-07T22:28:41.520Z,17.80
2019-02-07T22:31:11.788Z,16.20
2019-02-07T22:33:41.769Z,15.33
2019-02-07T22:36:12.803Z,15.87
2019-02-07T22:38:43.329Z,14.97
2019-02-07T22:41:13.523Z,14.87
2019-02-07T22:43:43.958Z,17.67
2019-02-07T22:46:14.172Z,16.33
2019-02-07T22:48:43.783Z,14.53
2019-02-07T22:51:14.284Z,15.03
2019-02-07T22:53:44.436Z,14.40
2019-02-07T22:56:14.972Z,16.97
2019-02-07T22:58:44.683Z,16.50
2019-02-07T23:01:23.164Z,15.00
2019-02-07T23:04:01.296Z,16.33
2019-02-07T23:06:32.919Z,15.90
2019-02-07T23:09:04.504Z,15.43
2019-02-07T23:11:35.261Z,15.80
2019-02-07T23:14:06.605Z,14.43
2019-02-07T23:16:36.889Z,14.37
2019-02-07T23:19:07.924Z,14.83
2019-02-07T23:21:38.155Z,15.03
2019-02-07T23:24:08.465Z,13.57
2019-02-07T23:26:38.015Z,14.97
2019-02-07T23:29:08.447Z,14.87
2019-02-07T23:31:39.188Z,13.60
2019-02-07T23:34:09.467Z,13.77
2019-02-07T23:36:39.825Z,15.80
2019-02-07T23:39:11.041Z,14.10
2019-02-07T23:41:41.154Z,14.53
2019-02-07T23:44:11.508Z,13.20
2019-02-07T23:46:46.421Z,11.93
2019-02-07T23:49:16.533Z,12.87
2019-02-07T23:51:46.168Z,14.23
2019-02-07T23:54:16.388Z,13.30
2019-02-07T23:56:46.897Z,12.30
2019-02-07T23:59:17.332Z,12.17
